createdAt,value
2022-11-04T00:01:45.117Z,99.00
2022-11-04T00:04:14.239Z,98.90
2022-11-04T00:06:41.701Z,99.10
2022-11-04T00:09:12.414Z,99.00
2022-11-04T00:11:58.102Z,99.10
2022-11-04T00:14:25.804Z,99.10
2022-11-04T00:17:11.335Z,99.00
2022-11-04T00:19:57.176Z,99.10
2022-11-04T00:22:50.862Z,99.20
2022-11-04T00:25:36.675Z,99.20
2022-11-04T00:28:31.764Z,99.40
2022-11-04T00:31:23.343Z,99.40
2022-11-04T00:33:53.159Z,99.40
2022-11-04T00:36:21.509Z,99.40
2022-11-04T00:38:48.832Z,99.50
2022-11-04T00:41:29.077Z,99.50
2022-11-04T00:44:00.839Z,99.50
2022-11-04T00:46:29.808Z,99.50
2022-11-04T00:48:57.415Z,99.60
2022-11-04T00:51:24.786Z,99.80
2022-11-04T00:53:52.853Z,99.80
2022-11-04T00:56:20.249Z,99.80
2022-11-04T00:58:47.567Z,99.90
2022-11-04T01:01:19.344Z,99.90
2022-11-04T01:03:48.589Z,99.90
2022-11-04T01:06:16.641Z,99.90
2022-11-04T01:08:44.017Z,99.90
2022-11-04T01:11:12.186Z,99.90
2022-11-04T01:13:40.577Z,99.90
2022-11-04T01:16:10.432Z,99.90
2022-11-04T01:18:38.056Z,99.90
2022-11-04T01:21:07.639Z,99.90
2022-11-04T01:23:35.959Z,99.90
2022-11-04T01:26:08.132Z,99.90
2022-11-04T01:28:35.667Z,99.90
2022-11-04T01:31:11.556Z,99.90
2022-11-04T01:33:39.214Z,99.90
2022-11-04T01:36:08.236Z,99.90
2022-11-04T01:38:35.653Z,99.90
2022-11-04T01:41:04.067Z,99.90
2022-11-04T01:43:44.970Z,99.90
2022-11-04T01:46:20.380Z,99.90
2022-11-04T01:48:47.693Z,99.90
2022-11-04T01:51:15.557Z,99.90
2022-11-04T01:53:44.462Z,99.90
2022-11-04T01:56:14.281Z,99.90
2022-11-04T01:58:52.231Z,99.90
2022-11-04T02:01:19.810Z,99.90
2022-11-04T02:04:17.927Z,99.90
2022-11-04T02:06:49.841Z,99.90
2022-11-04T02:09:19.436Z,99.90
2022-11-04T02:12:05.686Z,99.90
2022-11-04T02:14:34.411Z,99.90
2022-11-04T02:17:33.625Z,99.90
2022-11-04T02:20:16.972Z,99.90
2022-11-04T02:23:06.289Z,99.90
2022-11-04T02:26:04.047Z,99.90
2022-11-04T02:28:52.990Z,99.90
2022-11-04T02:31:50.950Z,99.90
2022-11-04T02:34:46.500Z,99.90
2022-11-04T02:37:30.922Z,99.90
2022-11-04T02:40:05.264Z,99.90
2022-11-04T02:42:35.640Z,99.90
2022-11-04T02:45:05.957Z,99.90
2022-11-04T02:47:36.492Z,99.90
2022-11-04T02:50:03.765Z,99.90
2022-11-04T02:52:41.293Z,99.90
2022-11-04T02:55:18.534Z,99.90
2022-11-04T02:57:48.038Z,99.90
2022-11-04T03:00:16.066Z,99.90
2022-11-04T03:02:49.047Z,99.90
2022-11-04T03:05:25.966Z,99.90
2022-11-04T03:07:58.538Z,99.90
2022-11-04T03:10:35.886Z,99.90
2022-11-04T03:13:13.394Z,99.90
2022-11-04T03:15:48.072Z,99.90
2022-11-04T03:18:25.132Z,99.90
2022-11-04T03:20:56.819Z,99.90
2022-11-04T03:23:24.295Z,99.90
2022-11-04T03:25:57.633Z,99.90
2022-11-04T03:28:48.831Z,99.90
2022-11-04T03:31:33.002Z,99.90
2022-11-04T03:34:00.241Z,99.90
2022-11-04T03:36:29.687Z,99.90
2022-11-04T03:38:57.062Z,99.90
2022-11-04T03:41:33.538Z,99.90
2022-11-04T03:44:00.947Z,99.90
2022-11-04T03:46:28.914Z,99.90
2022-11-04T03:48:57.301Z,99.90
2022-11-04T03:51:24.601Z,99.90
2022-11-04T03:53:52.000Z,99.90
2022-11-04T03:57:09.756Z,99.90
2022-11-04T03:59:59.511Z,99.90
2022-11-04T04:02:42.000Z,99.90
2022-11-04T04:05:32.247Z,99.90
2022-11-04T04:08:16.396Z,99.90
2022-11-04T04:11:01.246Z,99.80
2022-11-04T04:13:44.669Z,99.80
2022-11-04T04:16:32.266Z,99.80
2022-11-04T04:19:15.348Z,99.90
2022-11-04T04:21:48.028Z,99.90
2022-11-04T04:24:38.306Z,99.90
2022-11-04T04:27:24.076Z,99.90
2022-11-04T04:29:53.680Z,99.80
2022-11-04T04:32:24.211Z,99.80
2022-11-04T04:35:11.726Z,99.70
2022-11-04T04:37:41.377Z,99.70
2022-11-04T04:40:31.079Z,99.60
2022-11-04T04:43:18.737Z,99.60
2022-11-04T04:45:52.613Z,99.50
2022-11-04T04:48:20.061Z,99.40
2022-11-04T04:50:50.860Z,99.50
2022-11-04T04:53:18.147Z,99.50
2022-11-04T04:55:45.419Z,99.60
2022-11-04T04:58:12.797Z,99.60
2022-11-04T05:00:40.203Z,99.60
2022-11-04T05:03:07.772Z,99.60
2022-11-04T05:05:35.258Z,99.60
2022-11-04T05:08:09.231Z,99.60
2022-11-04T05:10:36.686Z,99.60
2022-11-04T05:13:22.545Z,99.60
2022-11-04T05:15:49.827Z,99.50
2022-11-04T05:18:17.468Z,99.60
2022-11-04T05:20:44.867Z,99.60
2022-11-04T05:23:13.661Z,99.60
2022-11-04T05:25:42.263Z,99.70
2022-11-04T05:28:10.727Z,99.80
2022-11-04T05:30:39.693Z,99.90
2022-11-04T05:33:07.805Z,99.90
2022-11-04T05:35:35.650Z,99.90
2022-11-04T05:38:03.434Z,99.90
2022-11-04T05:40:30.897Z,99.90
2022-11-04T05:42:59.746Z,99.90
2022-11-04T05:45:28.601Z,99.90
2022-11-04T05:48:04.890Z,99.80
2022-11-04T05:50:33.909Z,99.80
2022-11-04T05:53:01.762Z,99.70
2022-11-04T05:55:29.290Z,99.70
2022-11-04T05:57:58.055Z,99.60
2022-11-04T06:00:29.225Z,99.70
2022-11-04T06:02:57.775Z,99.70
2022-11-04T06:05:26.816Z,99.80
2022-11-04T06:07:55.014Z,99.70
2022-11-04T06:10:22.694Z,99.70
2022-11-04T06:12:49.996Z,99.70
2022-11-04T06:15:17.357Z,99.80
2022-11-04T06:17:44.657Z,99.70
2022-11-04T06:20:12.209Z,99.60
2022-11-04T06:22:39.630Z,99.70
2022-11-04T06:25:07.147Z,99.70
2022-11-04T06:27:34.451Z,99.70
2022-11-04T06:30:01.930Z,99.60
2022-11-04T06:32:29.169Z,99.70
2022-11-04T06:34:56.582Z,99.90
2022-11-04T06:37:23.794Z,99.90
2022-11-04T06:39:51.035Z,99.90
2022-11-04T06:42:18.284Z,99.90
2022-11-04T06:44:45.533Z,99.90
2022-11-04T06:47:12.838Z,99.90
2022-11-04T06:49:40.233Z,99.90
2022-11-04T06:52:07.482Z,99.90
2022-11-04T06:54:34.839Z,99.90
2022-11-04T06:57:03.093Z,99.90
2022-11-04T06:59:30.479Z,99.90
2022-11-04T07:01:58.147Z,99.90
2022-11-04T07:04:25.504Z,99.90
2022-11-04T07:06:52.779Z,99.90
2022-11-04T07:09:20.211Z,99.90
2022-11-04T07:11:47.866Z,99.90
2022-11-04T07:14:15.318Z,99.90
2022-11-04T07:16:42.617Z,99.90
2022-11-04T07:19:10.170Z,99.90
2022-11-04T07:21:37.490Z,99.90
2022-11-04T07:24:05.032Z,99.90
2022-11-04T07:26:32.305Z,99.90
2022-11-04T07:29:01.003Z,99.90
2022-11-04T07:31:28.450Z,99.90
2022-11-04T07:33:55.987Z,99.90
2022-11-04T07:36:23.311Z,99.90
2022-11-04T07:38:50.642Z,99.90
2022-11-04T07:41:19.122Z,99.90
2022-11-04T07:43:52.831Z,99.90
2022-11-04T07:46:20.818Z,99.90
2022-11-04T07:48:48.237Z,99.90
2022-11-04T07:51:18.042Z,99.90
2022-11-04T07:53:46.558Z,99.90
2022-11-04T07:56:14.279Z,99.90
2022-11-04T07:58:42.484Z,99.90
2022-11-04T08:01:13.159Z,99.80
2022-11-04T08:03:41.007Z,99.90
2022-11-04T08:06:10.995Z,99.60
2022-11-04T08:08:38.589Z,99.60
2022-11-04T08:11:14.240Z,99.70
2022-11-04T08:13:45.594Z,99.60
2022-11-04T08:16:21.881Z,99.50
2022-11-04T08:18:52.499Z,99.50
2022-11-04T08:21:20.884Z,99.40
2022-11-04T08:23:48.232Z,99.50
2022-11-04T08:26:18.167Z,99.50
2022-11-04T08:28:46.074Z,99.40
2022-11-04T08:31:21.814Z,99.30
2022-11-04T08:33:49.111Z,99.20
2022-11-04T08:36:20.025Z,99.20
2022-11-04T08:38:47.772Z,99.30
2022-11-04T08:41:19.613Z,99.50
2022-11-04T08:43:47.842Z,99.70
2022-11-04T08:46:15.441Z,99.70
2022-11-04T08:48:43.776Z,99.70
2022-11-04T08:51:18.830Z,99.90
2022-11-04T08:53:46.073Z,99.90
2022-11-04T08:56:19.032Z,99.70
2022-11-04T08:58:46.617Z,99.70
2022-11-04T09:01:14.798Z,99.60
2022-11-04T09:03:43.010Z,99.60
2022-11-04T09:06:14.984Z,99.50
2022-11-04T09:08:43.573Z,99.30
2022-11-04T09:11:12.597Z,99.10
2022-11-04T09:13:40.210Z,99.20
2022-11-04T09:16:10.087Z,99.30
2022-11-04T09:18:37.683Z,98.90
2022-11-04T09:21:07.877Z,98.90
2022-11-04T09:23:35.442Z,99.10
2022-11-04T09:26:11.582Z,99.20
2022-11-04T09:28:40.304Z,99.00
2022-11-04T09:31:16.123Z,99.10
2022-11-04T09:33:43.927Z,98.90
2022-11-04T09:36:12.284Z,98.90
2022-11-04T09:38:41.151Z,98.80
2022-11-04T09:41:34.710Z,98.80
2022-11-04T09:44:20.214Z,98.60
2022-11-04T09:46:49.478Z,98.60
2022-11-04T09:49:16.939Z,98.50
2022-11-04T09:51:55.916Z,98.60
2022-11-04T09:54:46.882Z,98.60
2022-11-04T09:57:19.141Z,98.60
2022-11-04T09:59:47.401Z,98.70
2022-11-04T10:02:37.301Z,98.80
2022-11-04T10:05:16.081Z,99.00
2022-11-04T10:08:13.829Z,98.70
2022-11-04T10:11:11.388Z,98.90
2022-11-04T10:14:00.763Z,98.70
2022-11-04T10:16:41.068Z,98.80
2022-11-04T10:19:22.891Z,99.10
2022-11-04T10:22:13.684Z,99.20
2022-11-04T10:24:43.513Z,99.50
2022-11-04T10:27:17.592Z,99.40
2022-11-04T10:29:46.040Z,99.30
2022-11-04T10:32:24.928Z,99.20
2022-11-04T10:35:02.127Z,99.40
2022-11-04T10:37:29.994Z,99.50
2022-11-04T10:40:21.868Z,99.50
2022-11-04T10:42:50.037Z,99.50
2022-11-04T10:45:21.389Z,99.70
2022-11-04T10:48:08.022Z,99.60
2022-11-04T10:50:44.804Z,99.70
2022-11-04T10:53:18.924Z,99.60
2022-11-04T10:55:57.023Z,99.50
2022-11-04T10:58:29.220Z,99.90
2022-11-04T11:00:59.248Z,99.60
2022-11-04T11:03:34.828Z,99.60
2022-11-04T11:06:25.838Z,99.70
2022-11-04T11:08:56.839Z,99.70
2022-11-04T11:11:40.734Z,99.80
2022-11-04T11:14:20.265Z,99.90
2022-11-04T11:16:48.182Z,99.90
2022-11-04T11:19:18.658Z,99.80
2022-11-04T11:21:51.438Z,99.90
2022-11-04T11:24:26.150Z,99.90
2022-11-04T11:26:56.460Z,99.80
2022-11-04T11:29:40.195Z,99.80
2022-11-04T11:32:25.855Z,99.80
2022-11-04T11:34:53.191Z,99.80
2022-11-04T11:37:24.959Z,99.60
2022-11-04T11:39:52.402Z,99.50
2022-11-04T11:42:20.499Z,99.50
2022-11-04T11:44:57.122Z,99.10
2022-11-04T11:47:28.341Z,99.20
2022-11-04T11:50:18.809Z,99.30
2022-11-04T11:52:49.017Z,99.60
2022-11-04T11:55:27.791Z,99.60
2022-11-04T12:01:06.927Z,99.40
2022-11-04T12:10:04.779Z,99.20
2022-11-04T12:12:53.751Z,99.00
2022-11-04T12:15:55.034Z,99.00
2022-11-04T12:18:41.111Z,99.10
2022-11-04T12:21:11.119Z,98.90
2022-11-04T12:23:54.122Z,98.90
2022-11-04T12:26:53.497Z,98.80
2022-11-04T12:29:54.932Z,98.90
2022-11-04T12:32:35.241Z,98.90
2022-11-04T12:35:28.330Z,98.60
2022-11-04T12:38:16.329Z,98.90
2022-11-04T12:41:34.245Z,99.00
2022-11-04T12:44:05.040Z,99.00
2022-11-04T12:46:54.104Z,99.10
2022-11-04T12:49:35.065Z,99.20
2022-11-04T12:52:35.831Z,99.00
2022-11-04T12:55:22.034Z,98.80
2022-11-04T12:58:06.926Z,99.00
2022-11-04T13:00:38.945Z,99.10
2022-11-04T13:03:41.240Z,99.20
2022-11-04T13:06:23.695Z,99.30
2022-11-04T13:09:06.763Z,99.30
2022-11-04T13:11:45.229Z,99.30
2022-11-04T13:14:16.269Z,99.30
2022-11-04T13:16:46.399Z,99.10
2022-11-04T13:19:23.850Z,99.00
2022-11-04T13:21:51.884Z,98.90
2022-11-04T13:24:30.440Z,98.80
2022-11-04T13:27:04.811Z,98.60
2022-11-04T13:29:34.624Z,98.60
2022-11-04T13:32:08.611Z,98.70
2022-11-04T13:34:57.716Z,98.50
2022-11-04T13:37:39.887Z,98.70
2022-11-04T13:40:24.643Z,98.50
2022-11-04T13:43:38.460Z,98.20
2022-11-04T13:46:08.725Z,98.40
2022-11-04T13:48:38.987Z,98.40
2022-11-04T13:51:14.371Z,98.40
2022-11-04T13:53:55.889Z,98.50
2022-11-04T13:56:33.457Z,98.50
2022-11-04T13:59:29.214Z,98.70
2022-11-04T14:02:23.618Z,98.90
2022-11-04T14:04:51.093Z,99.20
2022-11-04T14:07:18.819Z,98.70
2022-11-04T14:09:54.608Z,99.10
2022-11-04T14:12:31.594Z,99.00
2022-11-04T14:15:08.840Z,99.00
2022-11-04T14:17:36.175Z,99.00
2022-11-04T14:20:06.734Z,98.90
2022-11-04T14:22:54.400Z,99.00
2022-11-04T14:25:32.865Z,98.60
2022-11-04T14:28:01.908Z,98.50
2022-11-04T14:30:29.182Z,98.70
2022-11-04T14:33:00.761Z,99.00
2022-11-04T14:35:30.443Z,99.30
2022-11-04T14:38:19.623Z,99.40
2022-11-04T14:41:12.605Z,99.50
2022-11-04T14:43:44.349Z,99.80
2022-11-04T14:46:18.548Z,99.70
2022-11-04T14:48:52.293Z,99.60
2022-11-04T14:51:27.693Z,99.20
2022-11-04T14:54:20.951Z,99.00
2022-11-04T14:56:48.507Z,98.90
2022-11-04T14:59:23.182Z,98.40
2022-11-04T15:01:52.442Z,98.30
2022-11-04T15:04:26.892Z,98.20
2022-11-04T15:07:02.367Z,98.10
2022-11-04T15:09:39.586Z,97.70
2022-11-04T15:12:29.753Z,96.80
2022-11-04T15:14:58.351Z,96.60
2022-11-04T15:17:33.472Z,96.00
2022-11-04T15:20:04.515Z,95.80
2022-11-04T15:22:31.889Z,95.40
2022-11-04T15:25:05.814Z,95.40
2022-11-04T15:27:34.584Z,95.00
2022-11-04T15:30:04.191Z,94.90
2022-11-04T15:32:32.126Z,94.90
2022-11-04T15:35:00.028Z,95.00
2022-11-04T15:37:28.920Z,94.80
2022-11-04T15:39:58.458Z,94.60
2022-11-04T15:42:36.812Z,94.40
2022-11-04T15:45:37.286Z,93.70
2022-11-04T15:48:31.101Z,93.70
2022-11-04T15:51:24.531Z,93.40
2022-11-04T15:54:00.630Z,93.70
2022-11-04T15:56:31.941Z,93.30
2022-11-04T15:59:01.401Z,93.40
2022-11-04T16:01:29.487Z,93.30
2022-11-04T16:04:00.334Z,93.40
2022-11-04T16:06:42.862Z,93.40
2022-11-04T16:09:11.330Z,93.30
2022-11-04T16:11:38.929Z,93.40
2022-11-04T16:14:35.676Z,93.40
2022-11-04T16:17:03.386Z,93.10
2022-11-04T16:19:32.237Z,92.90
2022-11-04T16:22:11.337Z,92.90
2022-11-04T16:24:40.746Z,92.70
2022-11-04T16:27:14.047Z,92.60
2022-11-04T16:29:46.737Z,92.60
2022-11-04T16:32:18.373Z,92.80
2022-11-04T16:34:48.762Z,92.40
2022-11-04T16:37:16.152Z,92.40
2022-11-04T16:39:45.287Z,92.30
2022-11-04T16:42:14.718Z,92.10
2022-11-04T16:44:48.331Z,92.00
2022-11-04T16:47:16.642Z,92.10
2022-11-04T16:49:43.988Z,92.10
2022-11-04T16:52:20.479Z,92.10
2022-11-04T16:54:48.326Z,92.00
2022-11-04T16:57:15.826Z,92.00
2022-11-04T16:59:43.846Z,92.00
2022-11-04T17:02:31.366Z,92.10
2022-11-04T17:04:59.371Z,91.70
2022-11-04T17:07:47.452Z,91.70
2022-11-04T17:10:19.069Z,91.70
2022-11-04T17:12:46.832Z,91.70
2022-11-04T17:15:15.850Z,91.80
2022-11-04T17:17:43.460Z,91.60
2022-11-04T17:20:14.241Z,91.60
2022-11-04T17:22:43.187Z,91.60
2022-11-04T17:25:17.892Z,91.80
2022-11-04T17:27:45.275Z,91.60
2022-11-04T17:30:14.253Z,91.80
2022-11-04T17:32:42.363Z,91.80
2022-11-04T17:35:10.148Z,91.90
2022-11-04T17:37:38.045Z,91.90
2022-11-04T17:40:09.011Z,91.80
2022-11-04T17:42:57.539Z,92.10
2022-11-04T17:45:25.025Z,91.90
2022-11-04T17:47:52.287Z,92.00
2022-11-04T17:50:19.645Z,91.90
2022-11-04T17:52:49.231Z,91.80
2022-11-04T17:55:20.699Z,91.80
2022-11-04T17:57:50.554Z,91.80
2022-11-04T18:00:19.478Z,91.90
2022-11-04T18:02:46.881Z,92.10
2022-11-04T18:05:14.396Z,92.10
2022-11-04T18:07:42.343Z,91.90
2022-11-04T18:10:10.135Z,92.10
2022-11-04T18:12:37.418Z,92.00
2022-11-04T18:15:13.416Z,91.70
2022-11-04T18:17:43.818Z,91.80
2022-11-04T18:20:15.383Z,91.80
2022-11-04T18:22:44.824Z,91.80
2022-11-04T18:25:12.897Z,91.80
2022-11-04T18:27:40.417Z,92.10
2022-11-04T18:30:08.204Z,91.90
2022-11-04T18:32:35.556Z,91.90
2022-11-04T18:35:02.884Z,91.80
2022-11-04T18:37:30.310Z,92.00
2022-11-04T18:39:57.625Z,92.00
2022-11-04T18:42:24.978Z,92.00
2022-11-04T18:44:52.761Z,91.90
2022-11-04T18:47:20.382Z,92.00
2022-11-04T18:49:47.943Z,91.70
2022-11-04T18:52:15.592Z,91.60
2022-11-04T18:54:43.801Z,91.60
2022-11-04T18:57:11.997Z,91.40
2022-11-04T18:59:41.605Z,91.60
2022-11-04T19:02:17.488Z,91.60
2022-11-04T19:04:44.913Z,91.70
2022-11-04T19:07:12.195Z,91.20
2022-11-04T19:09:46.627Z,91.30
2022-11-04T19:12:33.591Z,91.30
2022-11-04T19:15:00.965Z,91.00
2022-11-04T19:17:28.193Z,91.10
2022-11-04T19:19:56.649Z,91.00
2022-11-04T19:22:24.044Z,91.10
2022-11-04T19:24:51.269Z,90.80
2022-11-04T19:27:19.578Z,90.80
2022-11-04T19:29:46.915Z,90.90
2022-11-04T19:32:14.640Z,90.90
2022-11-04T19:34:43.314Z,90.70
2022-11-04T19:37:10.770Z,90.80
2022-11-04T19:39:38.602Z,90.70
2022-11-04T19:42:24.796Z,90.80
2022-11-04T19:44:52.125Z,90.80
2022-11-04T19:47:19.501Z,91.10
2022-11-04T19:49:46.730Z,91.00
2022-11-04T19:52:14.362Z,90.90
2022-11-04T19:54:41.655Z,90.90
2022-11-04T19:57:09.085Z,90.80
2022-11-04T19:59:36.335Z,90.90
2022-11-04T20:02:03.762Z,90.90
2022-11-04T20:04:32.072Z,90.90
2022-11-04T20:06:59.417Z,90.80
2022-11-04T20:09:26.729Z,91.00
2022-11-04T20:12:12.651Z,91.00
2022-11-04T20:14:39.957Z,91.20
2022-11-04T20:17:07.210Z,91.20
2022-11-04T20:19:35.418Z,91.40
2022-11-04T20:22:03.510Z,91.40
2022-11-04T20:24:30.845Z,91.40
2022-11-04T20:26:58.223Z,91.40
2022-11-04T20:29:25.579Z,91.60
2022-11-04T20:31:52.837Z,91.50
2022-11-04T20:34:20.230Z,91.60
2022-11-04T20:36:47.892Z,91.60
2022-11-04T20:39:17.993Z,91.60
2022-11-04T20:41:45.730Z,91.80
2022-11-04T20:44:15.176Z,91.90
2022-11-04T20:46:43.575Z,92.00
2022-11-04T20:49:12.353Z,92.00
2022-11-04T20:51:42.372Z,92.10
2022-11-04T20:54:11.045Z,91.90
2022-11-04T20:56:40.027Z,92.10
2022-11-04T20:59:09.722Z,92.20
2022-11-04T21:01:39.154Z,92.20
2022-11-04T21:04:12.391Z,92.20
2022-11-04T21:06:40.232Z,92.30
2022-11-04T21:09:09.949Z,92.50
2022-11-04T21:11:39.004Z,92.70
2022-11-04T21:14:08.032Z,92.70
2022-11-04T21:16:35.760Z,92.80
2022-11-04T21:19:04.737Z,92.70
2022-11-04T21:21:33.204Z,92.80
2022-11-04T21:24:02.976Z,92.90
2022-11-04T21:26:34.020Z,92.80
2022-11-04T21:29:04.330Z,92.70
2022-11-04T21:31:33.321Z,92.70
2022-11-04T21:34:01.494Z,93.00
2022-11-04T21:36:29.117Z,92.80
2022-11-04T21:38:58.446Z,92.70
2022-11-04T21:41:27.920Z,92.60
2022-11-04T21:44:02.302Z,92.40
2022-11-04T21:46:30.930Z,92.50
2022-11-04T21:48:58.989Z,92.60
2022-11-04T21:51:31.253Z,92.60
2022-11-04T21:53:59.256Z,92.50
2022-11-04T21:56:33.403Z,92.50
2022-11-04T21:59:01.062Z,92.40
2022-11-04T22:01:30.340Z,92.50
2022-11-04T22:04:00.221Z,92.60
2022-11-04T22:06:34.716Z,92.70
2022-11-04T22:09:06.654Z,92.70
2022-11-04T22:11:37.199Z,92.70
2022-11-04T22:14:06.283Z,92.70
2022-11-04T22:16:36.390Z,92.70
2022-11-04T22:19:05.905Z,92.70
2022-11-04T22:21:34.223Z,92.70
2022-11-04T22:24:01.843Z,92.70
2022-11-04T22:26:31.767Z,92.80
2022-11-04T22:28:59.728Z,92.90
2022-11-04T22:31:30.563Z,92.80
2022-11-04T22:33:58.802Z,92.90
2022-11-04T22:36:26.886Z,92.80
2022-11-04T22:38:54.565Z,92.80
2022-11-04T22:41:27.971Z,92.90
2022-11-04T22:43:58.797Z,92.80
2022-11-04T22:46:29.238Z,92.80
2022-11-04T22:48:56.744Z,92.70
2022-11-04T22:51:24.084Z,92.80
2022-11-04T22:53:59.094Z,93.00
2022-11-04T22:56:29.097Z,92.70
2022-11-04T22:58:56.350Z,92.70
2022-11-04T23:01:25.821Z,92.70
2022-11-04T23:03:53.616Z,92.70
2022-11-04T23:06:20.895Z,92.60
2022-11-04T23:08:48.269Z,92.60
2022-11-04T23:11:39.248Z,92.60
2022-11-04T23:14:25.216Z,92.50
2022-11-04T23:17:11.189Z,92.50
2022-11-04T23:19:39.417Z,92.60
2022-11-04T23:22:25.874Z,92.50
2022-11-04T23:25:06.715Z,92.50
2022-11-04T23:27:57.869Z,92.40
2022-11-04T23:30:27.753Z,92.40
2022-11-04T23:33:02.699Z,92.30
2022-11-04T23:35:51.354Z,92.20
2022-11-04T23:38:19.625Z,92.30
2022-11-04T23:41:08.065Z,92.20
2022-11-04T23:43:36.164Z,92.20
2022-11-04T23:46:22.027Z,92.20
2022-11-04T23:49:07.989Z,92.20
2022-11-04T23:51:53.926Z,92.20
2022-11-04T23:54:39.847Z,92.10
2022-11-04T23:57:33.910Z,92.00
